createdAt,value
2023-04-20T00:02:49.666Z,8.00
2023-04-20T00:04:52.316Z,7.90
2023-04-20T00:06:56.446Z,7.90
2023-04-20T00:08:58.935Z,7.90
2023-04-20T00:11:01.415Z,8.00
2023-04-20T00:13:03.887Z,8.00
2023-04-20T00:15:07.877Z,7.90
2023-04-20T00:17:10.384Z,7.90
2023-04-20T00:19:13.017Z,7.80
2023-04-20T00:21:15.488Z,7.70
2023-04-20T00:23:18.104Z,7.60
2023-04-20T00:25:20.661Z,7.50
2023-04-20T00:27:23.158Z,7.40
2023-04-20T00:29:26.760Z,7.30
2023-04-20T00:31:29.360Z,7.30
2023-04-20T00:33:31.948Z,7.10
2023-04-20T00:35:34.603Z,7.00
2023-04-20T00:37:37.114Z,7.00
2023-04-20T00:39:40.585Z,7.00
2023-04-20T00:43:58.458Z,7.10
2023-04-20T00:46:02.909Z,7.00
2023-04-20T00:48:06.175Z,7.00
2023-04-20T00:50:10.883Z,7.00
2023-04-20T00:52:14.997Z,6.90
2023-04-20T00:54:17.574Z,6.90
2023-04-20T00:56:20.163Z,6.90
2023-04-20T00:58:22.651Z,6.90
2023-04-20T01:00:25.568Z,6.80
2023-04-20T01:02:28.206Z,6.80
2023-04-20T01:04:31.094Z,6.80
2023-04-20T01:06:34.150Z,6.70
2023-04-20T01:08:36.661Z,6.70
2023-04-20T01:10:39.956Z,6.70
2023-04-20T01:12:42.815Z,6.60
2023-04-20T01:14:46.233Z,6.60
2023-04-20T01:16:49.136Z,6.50
2023-04-20T01:18:52.034Z,6.50
2023-04-20T01:20:54.518Z,6.40
2023-04-20T01:22:57.076Z,6.40
2023-04-20T01:24:59.639Z,6.40
2023-04-20T01:27:02.552Z,6.50
2023-04-20T01:29:05.139Z,6.50
2023-04-20T01:31:08.267Z,6.50
2023-04-20T01:33:10.958Z,6.60
2023-04-20T01:35:13.822Z,6.60
2023-04-20T01:37:16.445Z,6.60
2023-04-20T01:39:19.259Z,6.60
2023-04-20T01:41:22.740Z,6.60
2023-04-20T01:43:25.778Z,6.60
2023-04-20T01:45:28.289Z,6.60
2023-04-20T01:47:31.184Z,6.70
2023-04-20T01:49:33.746Z,6.70
2023-04-20T01:51:36.638Z,6.70
2023-04-20T01:53:39.118Z,6.80
2023-04-20T01:55:43.187Z,6.80
2023-04-20T01:57:45.686Z,6.80
2023-04-20T01:59:48.561Z,6.90
2023-04-20T02:01:51.275Z,6.90
2023-04-20T02:03:53.980Z,6.90
2023-04-20T02:05:56.930Z,6.90
2023-04-20T02:08:01.380Z,7.00
2023-04-20T02:10:04.328Z,6.90
2023-04-20T02:12:07.145Z,7.00
2023-04-20T02:14:09.748Z,7.00
2023-04-20T02:16:12.370Z,7.10
2023-04-20T02:18:15.633Z,7.00
2023-04-20T02:20:19.257Z,7.10
2023-04-20T02:22:21.876Z,7.10
2023-04-20T02:24:24.378Z,7.10
2023-04-20T02:26:27.279Z,7.10
2023-04-20T02:28:29.867Z,7.20
2023-04-20T02:30:32.459Z,7.20
2023-04-20T02:32:35.179Z,7.20
2023-04-20T02:34:37.976Z,7.30
2023-04-20T02:36:40.638Z,7.30
2023-04-20T02:38:43.269Z,7.40
2023-04-20T02:40:45.725Z,7.40
2023-04-20T02:42:48.505Z,7.50
2023-04-20T02:44:52.184Z,7.50
2023-04-20T02:46:54.896Z,7.50
2023-04-20T02:48:57.684Z,7.60
2023-04-20T02:51:00.979Z,7.60
2023-04-20T02:53:05.496Z,7.60
2023-04-20T02:57:26.006Z,7.60
2023-04-20T02:59:29.995Z,7.60
2023-04-20T03:01:34.395Z,7.50
2023-04-20T03:03:38.919Z,7.50
2023-04-20T03:05:44.034Z,7.50
2023-04-20T03:07:46.715Z,7.40
2023-04-20T03:09:49.568Z,7.40
2023-04-20T03:11:54.451Z,7.40
2023-04-20T03:13:58.848Z,7.40
2023-04-20T03:16:01.551Z,7.30
2023-04-20T03:18:06.114Z,7.40
2023-04-20T03:20:10.533Z,7.40
2023-04-20T03:22:13.113Z,7.40
2023-04-20T03:24:17.219Z,7.40
2023-04-20T03:26:20.276Z,7.30
2023-04-20T03:28:24.659Z,7.20
2023-04-20T03:30:27.652Z,7.20
2023-04-20T03:32:32.836Z,7.20
2023-04-20T03:34:36.140Z,7.20
2023-04-20T03:36:38.793Z,7.20
2023-04-20T03:38:41.245Z,7.20
2023-04-20T03:40:44.041Z,7.20
2023-04-20T03:42:46.658Z,7.30
2023-04-20T03:44:49.251Z,7.30
2023-04-20T03:46:51.884Z,7.30
2023-04-20T03:48:54.467Z,7.30
2023-04-20T03:50:57.036Z,7.30
2023-04-20T03:52:59.520Z,7.20
2023-04-20T03:55:02.565Z,7.20
2023-04-20T03:57:06.024Z,7.20
2023-04-20T03:59:08.611Z,7.10
2023-04-20T04:01:12.676Z,7.10
2023-04-20T04:03:17.292Z,7.00
2023-04-20T04:05:20.251Z,7.00
2023-04-20T04:07:24.909Z,7.00
2023-04-20T04:09:27.934Z,7.00
2023-04-20T04:11:30.560Z,7.00
2023-04-20T04:13:34.793Z,7.00
2023-04-20T04:15:38.564Z,7.00
2023-04-20T04:17:43.044Z,7.10
2023-04-20T04:19:46.311Z,7.00
2023-04-20T04:21:49.565Z,7.00
2023-04-20T04:23:52.136Z,7.00
2023-04-20T04:25:56.668Z,6.90
2023-04-20T04:28:00.194Z,6.90
2023-04-20T04:30:04.104Z,6.90
2023-04-20T04:32:09.026Z,6.90
2023-04-20T04:34:13.553Z,6.90
2023-04-20T04:36:17.916Z,6.90
2023-04-20T04:38:21.193Z,6.80
2023-04-20T04:40:25.112Z,6.80
2023-04-20T04:42:29.572Z,6.80
2023-04-20T04:44:33.953Z,6.80
2023-04-20T04:46:36.856Z,6.80
2023-04-20T04:48:41.525Z,6.80
2023-04-20T04:50:44.020Z,6.80
2023-04-20T04:52:48.188Z,6.80
2023-04-20T04:54:50.684Z,6.80
2023-04-20T04:56:53.168Z,6.80
2023-04-20T04:58:55.660Z,6.80
2023-04-20T05:00:58.236Z,6.80
2023-04-20T05:03:04.977Z,6.70
2023-04-20T05:05:09.767Z,6.70
2023-04-20T05:07:13.506Z,6.70
2023-04-20T05:09:16.555Z,6.60
2023-04-20T05:11:20.194Z,6.60
2023-04-20T05:13:24.065Z,6.50
2023-04-20T05:15:27.782Z,6.50
2023-04-20T05:17:31.259Z,6.50
2023-04-20T05:19:35.021Z,6.40
2023-04-20T05:23:56.025Z,6.30
2023-04-20T05:25:59.588Z,6.20
2023-04-20T05:28:03.506Z,6.20
2023-04-20T05:30:19.630Z,6.20
2023-04-20T05:32:12.290Z,6.20
2023-04-20T05:34:16.399Z,6.10
2023-04-20T05:36:20.537Z,6.10
2023-04-20T05:38:24.924Z,6.00
2023-04-20T05:40:28.534Z,6.10
2023-04-20T05:42:32.432Z,6.20
2023-04-20T05:44:36.449Z,6.20
2023-04-20T05:46:39.422Z,6.10
2023-04-20T05:48:43.286Z,6.20
2023-04-20T05:50:47.082Z,6.20
2023-04-20T05:52:50.942Z,6.20
2023-04-20T05:54:53.770Z,6.20
2023-04-20T05:56:57.892Z,6.20
2023-04-20T05:59:01.675Z,6.20
2023-04-20T06:01:04.896Z,6.20
2023-04-20T06:03:11.723Z,6.20
2023-04-20T06:05:18.048Z,6.30
2023-04-20T06:07:21.821Z,6.30
2023-04-20T06:09:24.514Z,6.30
2023-04-20T06:11:27.499Z,6.20
2023-04-20T06:13:30.966Z,6.30
2023-04-20T06:15:33.648Z,6.30
2023-04-20T06:17:36.775Z,6.30
2023-04-20T06:19:39.342Z,6.40
2023-04-20T06:21:41.837Z,6.50
2023-04-20T06:23:44.344Z,6.40
2023-04-20T06:25:46.870Z,6.50
2023-04-20T06:27:51.343Z,6.50
2023-04-20T06:29:54.245Z,6.50
2023-04-20T06:31:56.737Z,6.60
2023-04-20T06:33:59.223Z,6.50
2023-04-20T06:36:01.719Z,6.60
2023-04-20T06:38:04.251Z,6.70
2023-04-20T06:40:08.037Z,6.60
2023-04-20T06:42:10.822Z,6.70
2023-04-20T06:44:14.637Z,6.80
2023-04-20T06:46:17.255Z,6.80
2023-04-20T06:48:30.652Z,6.80
2023-04-20T06:50:26.531Z,6.80
2023-04-20T06:52:30.700Z,6.80
2023-04-20T06:54:33.803Z,6.80
2023-04-20T06:56:43.693Z,6.90
2023-04-20T06:58:46.302Z,6.80
2023-04-20T07:00:49.218Z,6.90
2023-04-20T07:02:51.998Z,6.80
2023-04-20T07:04:56.784Z,6.90
2023-04-20T07:06:59.470Z,6.90
2023-04-20T07:09:02.017Z,6.90
2023-04-20T07:11:04.482Z,6.90
2023-04-20T07:13:07.046Z,7.00
2023-04-20T07:15:10.085Z,7.00
2023-04-20T07:17:12.822Z,7.00
2023-04-20T07:19:15.432Z,7.00
2023-04-20T07:21:18.094Z,7.00
2023-04-20T07:23:20.793Z,7.00
2023-04-20T07:25:24.129Z,7.00
2023-04-20T07:27:29.254Z,7.00
2023-04-20T07:29:33.871Z,6.90
2023-04-20T07:31:36.229Z,7.00
2023-04-20T07:33:38.767Z,6.90
2023-04-20T07:35:41.272Z,6.90
2023-04-20T07:37:43.984Z,7.00
2023-04-20T07:39:46.477Z,7.00
2023-04-20T07:41:48.964Z,7.00
2023-04-20T07:43:51.520Z,7.00
2023-04-20T07:45:54.304Z,7.00
2023-04-20T07:48:01.039Z,6.90
2023-04-20T07:50:03.711Z,6.80
2023-04-20T07:52:15.853Z,6.80
2023-04-20T07:54:10.471Z,7.00
2023-04-20T07:56:13.095Z,6.80
2023-04-20T07:58:15.814Z,6.80
2023-04-20T08:00:19.744Z,6.80
2023-04-20T08:02:24.883Z,6.80
2023-04-20T08:04:27.893Z,6.70
2023-04-20T08:06:31.330Z,6.80
2023-04-20T08:08:33.963Z,6.80
2023-04-20T08:10:37.700Z,6.70
2023-04-20T08:12:40.269Z,6.60
2023-04-20T08:14:42.797Z,6.30
2023-04-20T08:16:45.421Z,6.20
2023-04-20T08:18:49.807Z,6.10
2023-04-20T08:20:52.320Z,6.00
2023-04-20T08:22:54.830Z,5.90
2023-04-20T08:25:17.973Z,5.90
2023-04-20T08:27:23.281Z,5.90
2023-04-20T08:29:25.853Z,6.10
2023-04-20T08:31:28.617Z,6.10
2023-04-20T08:33:31.293Z,6.40
2023-04-20T08:35:33.750Z,6.50
2023-04-20T08:37:36.944Z,6.60
2023-04-20T08:39:39.425Z,6.80
2023-04-20T08:41:41.956Z,6.90
2023-04-20T08:43:44.830Z,7.10
2023-04-20T08:45:49.370Z,7.10
2023-04-20T08:47:52.165Z,7.20
2023-04-20T08:49:55.391Z,7.10
2023-04-20T08:51:57.899Z,7.20
2023-04-20T08:54:02.484Z,7.30
2023-04-20T08:56:06.018Z,7.40
2023-04-20T08:58:08.661Z,7.40
2023-04-20T09:00:13.846Z,7.50
2023-04-20T09:02:16.361Z,7.40
2023-04-20T09:04:20.272Z,7.30
2023-04-20T09:06:23.473Z,7.40
2023-04-20T09:08:33.850Z,7.30
2023-04-20T09:10:40.541Z,7.30
2023-04-20T09:12:43.139Z,7.20
2023-04-20T09:14:46.514Z,7.10
2023-04-20T09:16:50.218Z,7.20
2023-04-20T09:18:53.814Z,7.30
2023-04-20T09:20:56.358Z,7.30
2023-04-20T09:23:00.634Z,7.80
2023-04-20T09:25:13.003Z,7.90
2023-04-20T09:27:16.239Z,7.90
2023-04-20T09:29:19.474Z,8.00
2023-04-20T09:31:22.801Z,8.00
2023-04-20T09:33:28.269Z,7.90
2023-04-20T09:35:30.782Z,7.90
2023-04-20T09:37:33.271Z,7.70
2023-04-20T09:39:37.112Z,7.50
2023-04-20T09:41:40.532Z,7.60
2023-04-20T09:43:43.108Z,7.50
2023-04-20T09:45:45.738Z,7.60
2023-04-20T09:47:49.360Z,7.60
2023-04-20T09:49:52.167Z,7.90
2023-04-20T09:51:54.684Z,8.10
2023-04-20T09:53:57.661Z,8.10
2023-04-20T09:56:01.248Z,8.20
2023-04-20T09:58:04.989Z,8.20
2023-04-20T10:00:10.334Z,8.20
2023-04-20T10:02:13.576Z,8.10
2023-04-20T10:04:16.371Z,8.20
2023-04-20T10:06:20.253Z,8.30
2023-04-20T10:08:23.791Z,8.60
2023-04-20T10:10:26.261Z,8.70
2023-04-20T10:12:28.785Z,8.90
2023-04-20T10:14:31.337Z,9.40
2023-04-20T10:16:33.901Z,9.20
2023-04-20T10:18:36.601Z,9.30
2023-04-20T10:20:39.092Z,9.20
2023-04-20T10:22:41.891Z,9.10
2023-04-20T10:24:44.509Z,9.30
2023-04-20T10:26:47.076Z,9.10
2023-04-20T10:28:49.918Z,9.20
2023-04-20T10:30:53.025Z,9.00
2023-04-20T10:33:06.016Z,8.90
2023-04-20T10:35:10.612Z,9.00
2023-04-20T10:37:13.842Z,8.80
2023-04-20T10:39:19.379Z,9.00
2023-04-20T10:41:21.326Z,9.00
2023-04-20T10:43:23.882Z,9.20
2023-04-20T10:45:35.134Z,9.20
2023-04-20T10:47:39.509Z,9.20
2023-04-20T10:49:42.134Z,9.20
2023-04-20T10:51:48.191Z,9.10
2023-04-20T10:54:00.678Z,8.90
2023-04-20T10:56:03.354Z,9.10
2023-04-20T10:58:05.966Z,9.80
2023-04-20T11:00:16.376Z,10.10
2023-04-20T11:02:19.137Z,9.60
2023-04-20T11:04:30.921Z,9.80
2023-04-20T11:06:33.653Z,9.70
2023-04-20T11:08:37.468Z,9.60
2023-04-20T11:10:40.847Z,9.80
2023-04-20T11:12:43.437Z,9.50
2023-04-20T11:14:53.657Z,9.20
2023-04-20T11:16:56.188Z,9.30
2023-04-20T11:18:58.722Z,9.70
2023-04-20T11:21:01.204Z,9.90
2023-04-20T11:23:05.300Z,10.00
2023-04-20T11:25:08.780Z,10.40
2023-04-20T11:27:13.068Z,9.90
2023-04-20T11:29:17.580Z,10.00
2023-04-20T11:31:20.787Z,9.90
2023-04-20T11:33:27.743Z,9.60
2023-04-20T11:35:32.089Z,9.60
2023-04-20T11:37:36.464Z,9.40
2023-04-20T11:39:39.075Z,9.80
2023-04-20T11:41:41.964Z,9.80
2023-04-20T11:43:44.968Z,9.90
2023-04-20T11:45:47.797Z,10.20
2023-04-20T11:47:50.571Z,10.50
2023-04-20T11:49:53.149Z,10.30
2023-04-20T11:51:55.641Z,10.10
2023-04-20T11:53:58.153Z,9.90
2023-04-20T11:56:00.769Z,9.90
2023-04-20T11:58:03.534Z,9.90
2023-04-20T12:00:07.756Z,10.00
2023-04-20T12:02:12.294Z,10.30
2023-04-20T12:04:15.715Z,10.40
2023-04-20T12:06:18.642Z,10.30
2023-04-20T12:08:21.191Z,10.50
2023-04-20T12:10:23.697Z,10.60
2023-04-20T12:12:26.291Z,10.70
2023-04-20T12:14:28.780Z,10.60
2023-04-20T12:16:33.321Z,10.30
2023-04-20T12:18:35.774Z,10.50
2023-04-20T12:20:38.264Z,10.20
2023-04-20T12:22:41.020Z,10.00
2023-04-20T12:24:43.604Z,10.00
2023-04-20T12:26:46.500Z,10.00
2023-04-20T12:28:49.020Z,10.00
2023-04-20T12:30:51.555Z,10.00
2023-04-20T12:32:54.027Z,10.10
2023-04-20T12:34:57.064Z,10.30
2023-04-20T12:37:00.454Z,10.80
2023-04-20T12:39:03.607Z,10.90
2023-04-20T12:41:06.182Z,10.60
2023-04-20T12:43:08.786Z,10.40
2023-04-20T12:47:27.802Z,10.20
2023-04-20T12:49:31.923Z,10.20
2023-04-20T12:51:34.800Z,10.30
2023-04-20T12:53:37.277Z,10.20
2023-04-20T12:55:39.869Z,10.30
2023-04-20T12:57:42.390Z,10.20
2023-04-20T12:59:44.893Z,10.30
2023-04-20T13:01:47.421Z,10.40
2023-04-20T13:03:51.491Z,10.60
2023-04-20T13:05:54.229Z,10.50
2023-04-20T13:07:56.711Z,10.60
2023-04-20T13:09:59.833Z,10.70
2023-04-20T13:12:02.688Z,11.00
2023-04-20T13:14:05.200Z,11.20
2023-04-20T13:16:07.897Z,11.40
2023-04-20T13:18:10.623Z,11.50
2023-04-20T13:20:13.303Z,11.60
2023-04-20T13:22:18.219Z,11.60
2023-04-20T13:24:20.749Z,11.80
2023-04-20T13:26:23.341Z,11.50
2023-04-20T13:28:25.834Z,11.60
2023-04-20T13:30:28.434Z,11.50
2023-04-20T13:32:30.954Z,11.00
2023-04-20T13:34:33.432Z,11.00
2023-04-20T13:36:35.943Z,11.20
2023-04-20T13:38:38.460Z,11.20
2023-04-20T13:40:41.908Z,11.30
2023-04-20T13:42:44.523Z,11.30
2023-04-20T13:44:47.038Z,11.40
2023-04-20T13:46:50.023Z,11.70
2023-04-20T13:48:52.484Z,12.00
2023-04-20T13:50:55.012Z,11.90
2023-04-20T13:52:57.483Z,11.80
2023-04-20T13:55:00.150Z,11.90
2023-04-20T13:57:02.589Z,11.90
2023-04-20T13:59:05.162Z,11.60
2023-04-20T14:01:08.609Z,11.90
2023-04-20T14:03:11.462Z,12.10
2023-04-20T14:05:14.166Z,12.30
2023-04-20T14:07:16.607Z,12.50
2023-04-20T14:09:19.122Z,12.30
2023-04-20T14:11:21.721Z,12.10
2023-04-20T14:13:24.393Z,12.40
2023-04-20T14:15:26.904Z,12.30
2023-04-20T14:17:29.389Z,12.40
2023-04-20T14:19:31.968Z,12.80
2023-04-20T14:21:34.497Z,12.70
2023-04-20T14:23:37.030Z,12.60
2023-04-20T14:25:39.642Z,12.80
2023-04-20T14:27:42.119Z,12.50
2023-04-20T14:29:44.837Z,12.30
2023-04-20T14:31:47.408Z,12.20
2023-04-20T14:33:50.336Z,11.90
2023-04-20T14:35:52.883Z,11.80
2023-04-20T14:37:55.363Z,11.80
2023-04-20T14:39:57.878Z,11.80
2023-04-20T14:42:00.678Z,11.80
2023-04-20T14:44:03.378Z,12.00
2023-04-20T14:46:06.034Z,12.10
2023-04-20T14:48:08.897Z,12.10
2023-04-20T14:50:12.140Z,12.30
2023-04-20T14:52:14.600Z,12.00
2023-04-20T14:54:17.380Z,12.40
2023-04-20T14:56:20.272Z,12.60
2023-04-20T14:58:22.834Z,12.20
2023-04-20T15:00:27.450Z,11.90
2023-04-20T15:02:30.084Z,11.70
2023-04-20T15:04:32.915Z,11.50
2023-04-20T15:06:35.604Z,11.30
2023-04-20T15:08:38.502Z,11.20
2023-04-20T15:10:41.254Z,11.20
2023-04-20T15:12:43.723Z,11.20
2023-04-20T15:14:46.314Z,11.20
2023-04-20T15:16:50.617Z,11.30
2023-04-20T15:18:54.039Z,11.50
2023-04-20T15:20:56.653Z,11.60
2023-04-20T15:22:59.097Z,11.90
2023-04-20T15:25:02.102Z,11.90
2023-04-20T15:27:06.213Z,11.70
2023-04-20T15:29:09.056Z,11.60
2023-04-20T15:31:13.412Z,11.50
2023-04-20T15:33:15.927Z,11.40
2023-04-20T15:35:18.580Z,11.40
2023-04-20T15:37:21.098Z,11.30
2023-04-20T15:39:23.696Z,11.10
2023-04-20T15:41:26.363Z,11.10
2023-04-20T15:43:28.834Z,11.00
2023-04-20T15:45:31.426Z,11.00
2023-04-20T15:47:34.029Z,10.90
2023-04-20T15:49:38.854Z,10.80
2023-04-20T15:51:42.618Z,11.00
2023-04-20T15:53:47.581Z,11.00
2023-04-20T15:55:50.291Z,11.10
2023-04-20T15:57:54.785Z,11.30
2023-04-20T15:59:57.312Z,11.50
2023-04-20T16:01:59.811Z,11.60
2023-04-20T16:04:02.659Z,11.40
2023-04-20T16:06:06.716Z,11.30
2023-04-20T16:08:13.849Z,11.10
2023-04-20T16:10:16.374Z,11.00
2023-04-20T16:12:18.938Z,10.90
2023-04-20T16:14:21.650Z,10.90
2023-04-20T16:16:24.309Z,10.80
2023-04-20T16:18:26.912Z,10.60
2023-04-20T16:20:29.418Z,10.60
2023-04-20T16:22:31.940Z,10.50
2023-04-20T16:24:34.410Z,10.40
2023-04-20T16:26:38.933Z,10.40
2023-04-20T16:28:42.144Z,10.30
2023-04-20T16:30:45.004Z,10.20
2023-04-20T16:32:47.840Z,10.20
2023-04-20T16:34:50.412Z,10.20
2023-04-20T16:36:52.991Z,10.10
2023-04-20T16:38:56.385Z,10.00
2023-04-20T16:40:58.863Z,10.00
2023-04-20T16:43:01.956Z,9.90
2023-04-20T16:45:05.353Z,9.90
2023-04-20T16:47:07.970Z,9.90
2023-04-20T16:49:10.604Z,9.90
2023-04-20T16:51:13.063Z,9.80
2023-04-20T16:53:15.544Z,9.70
2023-04-20T16:55:18.307Z,9.80
2023-04-20T16:57:21.029Z,9.70
2023-04-20T16:59:23.682Z,9.70
2023-04-20T17:01:26.324Z,9.70
2023-04-20T17:03:29.488Z,9.70
2023-04-20T17:05:32.418Z,9.60
2023-04-20T17:07:36.498Z,9.60
2023-04-20T17:09:38.964Z,9.50
2023-04-20T17:11:41.455Z,9.60
2023-04-20T17:13:43.966Z,9.50
2023-04-20T17:15:46.461Z,9.50
2023-04-20T17:17:49.285Z,9.50
2023-04-20T17:19:51.839Z,9.50
2023-04-20T17:21:54.301Z,9.50
2023-04-20T17:23:56.939Z,9.40
2023-04-20T17:25:59.535Z,9.40
2023-04-20T17:28:02.931Z,9.30
2023-04-20T17:30:06.781Z,9.30
2023-04-20T17:32:09.345Z,9.20
2023-04-20T17:34:11.860Z,9.20
2023-04-20T17:36:14.472Z,9.10
2023-04-20T17:38:16.982Z,9.10
2023-04-20T17:40:19.635Z,9.00
2023-04-20T17:42:22.115Z,8.90
2023-04-20T17:44:24.598Z,8.90
2023-04-20T17:48:42.881Z,8.80
2023-04-20T17:50:48.253Z,8.80
2023-04-20T17:52:51.357Z,8.80
2023-04-20T17:54:54.035Z,8.80
2023-04-20T17:56:57.383Z,8.80
2023-04-20T17:58:59.893Z,8.80
2023-04-20T18:01:02.757Z,8.80
2023-04-20T18:03:05.466Z,8.80
2023-04-20T18:05:08.577Z,8.80
2023-04-20T18:07:12.518Z,8.80
2023-04-20T18:09:15.008Z,8.80
2023-04-20T18:11:17.504Z,8.80
2023-04-20T18:13:19.956Z,8.90
2023-04-20T18:15:22.477Z,8.90
2023-04-20T18:17:25.072Z,8.90
2023-04-20T18:19:27.566Z,8.90
2023-04-20T18:21:31.020Z,8.90
2023-04-20T18:23:33.579Z,8.90
2023-04-20T18:25:36.217Z,9.00
2023-04-20T18:27:39.117Z,9.00
2023-04-20T18:29:41.728Z,9.00
2023-04-20T18:31:45.842Z,9.00
2023-04-20T18:33:48.768Z,9.00
2023-04-20T18:35:51.546Z,9.00
2023-04-20T18:37:54.684Z,9.00
2023-04-20T18:39:58.056Z,9.00
2023-04-20T18:42:01.675Z,8.90
2023-04-20T18:44:04.478Z,8.90
2023-04-20T18:46:07.143Z,8.90
2023-04-20T18:48:09.877Z,8.90
2023-04-20T18:50:12.550Z,8.80
2023-04-20T18:52:15.193Z,8.90
2023-04-20T18:54:17.917Z,8.80
2023-04-20T18:56:20.598Z,8.80
2023-04-20T18:58:23.082Z,8.80
2023-04-20T19:00:25.790Z,8.80
2023-04-20T19:02:28.367Z,8.80
2023-04-20T19:04:32.322Z,8.80
2023-04-20T19:06:37.278Z,8.80
2023-04-20T19:08:40.127Z,8.80
2023-04-20T19:10:42.602Z,8.80
2023-04-20T19:12:45.167Z,9.10
2023-04-20T19:14:49.270Z,8.80
2023-04-20T19:16:52.069Z,8.80
2023-04-20T19:18:56.047Z,8.80
2023-04-20T19:20:58.549Z,8.80
2023-04-20T19:23:01.062Z,8.80
2023-04-20T19:25:03.779Z,8.80
2023-04-20T19:27:06.258Z,8.90
2023-04-20T19:29:08.966Z,8.90
2023-04-20T19:31:11.979Z,8.90
2023-04-20T19:33:14.628Z,8.80
2023-04-20T19:35:17.207Z,8.80
2023-04-20T19:37:19.694Z,8.90
2023-04-20T19:39:22.211Z,8.90
2023-04-20T19:41:25.423Z,8.90
2023-04-20T19:43:28.164Z,8.90
2023-04-20T19:45:30.671Z,8.80
2023-04-20T19:47:33.159Z,8.80
2023-04-20T19:49:35.846Z,8.80
2023-04-20T19:51:38.368Z,8.80
2023-04-20T19:53:41.267Z,8.80
2023-04-20T19:55:43.773Z,8.80
2023-04-20T19:57:46.277Z,8.80
2023-04-20T19:59:48.739Z,9.30
2023-04-20T20:01:51.255Z,8.80
2023-04-20T20:03:54.718Z,8.80
2023-04-20T20:05:57.702Z,8.90
2023-04-20T20:08:00.310Z,8.80
2023-04-20T20:10:03.347Z,8.80
2023-04-20T20:12:07.711Z,8.80
2023-04-20T20:14:10.226Z,8.80
2023-04-20T20:16:12.777Z,8.80
2023-04-20T20:18:15.668Z,8.80
2023-04-20T20:20:19.701Z,8.80
2023-04-20T20:22:22.209Z,8.80
2023-04-20T20:24:24.692Z,8.80
2023-04-20T20:26:27.180Z,8.80
2023-04-20T20:28:29.959Z,8.80
2023-04-20T20:30:32.490Z,8.80
2023-04-20T20:32:37.549Z,8.80
2023-04-20T20:34:40.744Z,8.80
2023-04-20T20:36:45.018Z,8.70
2023-04-20T20:38:47.830Z,8.70
2023-04-20T20:40:52.126Z,8.70
2023-04-20T20:42:54.703Z,8.70
2023-04-20T20:44:57.801Z,8.70
2023-04-20T20:47:00.418Z,8.70
2023-04-20T20:49:03.009Z,8.70
2023-04-20T20:51:05.592Z,8.70
2023-04-20T20:53:08.397Z,8.60
2023-04-20T20:55:11.005Z,8.60
2023-04-20T20:57:13.596Z,8.70
2023-04-20T20:59:16.228Z,8.60
2023-04-20T21:01:19.191Z,8.60
2023-04-20T21:03:22.173Z,8.60
2023-04-20T21:05:24.970Z,8.60
2023-04-20T21:07:27.607Z,8.60
2023-04-20T21:09:30.091Z,8.50
2023-04-20T21:11:33.467Z,8.50
2023-04-20T21:13:37.877Z,8.50
2023-04-20T21:15:42.618Z,8.50
2023-04-20T21:17:46.682Z,8.40
2023-04-20T21:19:50.233Z,8.50
2023-04-20T21:21:55.942Z,8.50
2023-04-20T21:23:59.405Z,8.40
2023-04-20T21:26:03.048Z,8.40
2023-04-20T21:28:07.088Z,8.40
2023-04-20T21:30:11.938Z,8.40
2023-04-20T21:32:15.638Z,8.40
2023-04-20T21:34:18.409Z,8.40
2023-04-20T21:36:21.097Z,8.40
2023-04-20T21:38:23.651Z,8.50
2023-04-20T21:40:26.337Z,8.50
2023-04-20T21:42:28.836Z,8.50
2023-04-20T21:44:31.338Z,8.50
2023-04-20T21:46:33.926Z,8.50
2023-04-20T21:48:36.528Z,8.50
2023-04-20T21:50:59.155Z,8.50
2023-04-20T21:53:08.654Z,8.50
2023-04-20T21:55:11.483Z,8.50
2023-04-20T21:57:13.950Z,8.50
2023-04-20T21:59:16.459Z,8.40
2023-04-20T22:03:36.634Z,8.50
2023-04-20T22:05:39.043Z,8.50
2023-04-20T22:07:41.495Z,8.50
2023-04-20T22:09:44.090Z,8.50
2023-04-20T22:11:47.985Z,8.50
2023-04-20T22:13:50.491Z,8.50
2023-04-20T22:15:53.090Z,8.50
2023-04-20T22:17:57.982Z,8.50
2023-04-20T22:20:01.298Z,8.50
2023-04-20T22:22:03.853Z,8.50
2023-04-20T22:24:07.012Z,8.50
2023-04-20T22:26:09.527Z,8.50
2023-04-20T22:28:12.318Z,8.50
2023-04-20T22:30:15.108Z,8.40
2023-04-20T22:32:17.578Z,8.50
2023-04-20T22:34:20.100Z,8.40
2023-04-20T22:36:22.718Z,8.40
2023-04-20T22:38:25.375Z,8.40
2023-04-20T22:40:28.244Z,8.40
2023-04-20T22:44:45.799Z,8.30
2023-04-20T22:46:50.235Z,8.30
2023-04-20T22:48:52.912Z,8.40
2023-04-20T22:50:57.201Z,8.40
2023-04-20T22:53:00.141Z,8.40
2023-04-20T22:55:02.713Z,8.40
2023-04-20T22:57:05.492Z,8.40
2023-04-20T22:59:07.976Z,8.40
2023-04-20T23:01:10.527Z,8.40
2023-04-20T23:03:13.447Z,8.40
2023-04-20T23:05:18.372Z,8.50
2023-04-20T23:07:20.866Z,8.40
2023-04-20T23:09:23.337Z,8.50
2023-04-20T23:11:28.367Z,8.50
2023-04-20T23:13:32.664Z,8.50
2023-04-20T23:15:35.140Z,8.50
2023-04-20T23:17:37.732Z,8.50
2023-04-20T23:19:40.628Z,8.60
2023-04-20T23:21:43.124Z,8.60
2023-04-20T23:23:45.662Z,8.60
2023-04-20T23:25:48.215Z,8.70
2023-04-20T23:27:50.819Z,8.70
2023-04-20T23:29:53.283Z,8.80
2023-04-20T23:31:55.789Z,8.80
2023-04-20T23:33:58.371Z,8.80
2023-04-20T23:36:00.822Z,8.90
2023-04-20T23:38:03.511Z,8.90
2023-04-20T23:40:08.627Z,8.90
2023-04-20T23:42:11.135Z,8.90
2023-04-20T23:44:13.615Z,9.00
2023-04-20T23:46:16.618Z,9.00
2023-04-20T23:48:19.161Z,9.00
2023-04-20T23:50:21.681Z,9.00
2023-04-20T23:52:24.318Z,9.00
2023-04-20T23:54:26.807Z,9.00
2023-04-20T23:56:29.273Z,9.00
2023-04-20T23:58:31.991Z,9.00
